Legal, Canada
Current Conditions -  °F | °C
As of 6:26 PM on Sunday 21 Dec 2014 (Local Time) from CYED Reporting Station
Overcast Overcast  
Wind Chill:   Ceiling: 2400
Heat Index: 18°   Visibility: 3mi
Dew Point: 14°   Wind: 7mph
Humidity: 86%   Direction: 260°W
Pressure: 29.52"   Gusts: NA
Location:  53.95°N, 113.63°W
Report Text: CYED 220126Z AUTO 26006KT 3SM OVC024 M08/M10 A2952
Loading
Personal Weather Stations






























Interactive Weather Map New forecast layout! Learn more

10-Day Weather Forecast

Advertisements
Track Severe Weather on mobile